createdAt,value
2018-04-24T00:02:36.989Z,13.60
2018-04-24T00:07:40.272Z,13.40
2018-04-24T00:12:43.956Z,13.10
2018-04-24T00:17:47.187Z,13.10
2018-04-24T00:22:50.906Z,13.10
2018-04-24T00:27:54.127Z,13.10
2018-04-24T00:32:57.766Z,13.00
2018-04-24T00:38:02.144Z,13.00
2018-04-24T00:43:05.481Z,12.90
2018-04-24T00:48:08.746Z,12.90
2018-04-24T00:53:23.995Z,12.80
2018-04-24T00:58:27.301Z,12.80
2018-04-24T01:03:43.386Z,12.70
2018-04-24T01:08:47.034Z,12.60
2018-04-24T01:13:50.295Z,12.60
2018-04-24T01:18:53.681Z,12.30
2018-04-24T01:23:56.968Z,12.30
2018-04-24T01:29:02.069Z,12.30
2018-04-24T01:34:05.795Z,12.10
2018-04-24T01:39:09.297Z,12.10
2018-04-24T01:44:12.946Z,11.70
2018-04-24T01:49:16.180Z,11.70
2018-04-24T01:54:19.414Z,11.60
2018-04-24T01:59:35.509Z,11.40
2018-04-24T02:04:38.748Z,11.40
2018-04-24T02:09:42.388Z,11.40
2018-04-24T02:14:45.730Z,11.40
2018-04-24T02:19:49.168Z,11.40
2018-04-24T02:24:52.812Z,11.30
2018-04-24T02:29:56.053Z,11.30
2018-04-24T02:34:59.271Z,11.20
2018-04-24T02:40:02.507Z,11.20
2018-04-24T02:45:06.160Z,11.10
2018-04-24T02:50:09.412Z,11.10
2018-04-24T02:55:12.634Z,11.10
2018-04-24T03:00:16.244Z,11.30
2018-04-24T03:05:19.481Z,11.30
2018-04-24T03:10:22.743Z,11.40
2018-04-24T03:15:26.011Z,11.60
2018-04-24T03:20:29.236Z,11.50
2018-04-24T03:25:32.457Z,11.60
2018-04-24T03:30:36.180Z,11.60
2018-04-24T03:35:39.855Z,11.40
2018-04-24T03:40:43.089Z,11.40
2018-04-24T03:45:46.369Z,11.30
2018-04-24T03:50:49.596Z,11.50
2018-04-24T03:55:52.833Z,11.60
2018-04-24T04:00:56.114Z,11.80
2018-04-24T04:05:59.334Z,11.90
2018-04-24T04:11:03.036Z,12.00
2018-04-24T04:16:06.319Z,12.00
2018-04-24T04:21:21.740Z,12.00
2018-04-24T04:26:25.123Z,12.00
2018-04-24T04:31:29.170Z,11.80
2018-04-24T04:36:32.477Z,11.70
2018-04-24T04:41:36.194Z,11.90
2018-04-24T04:46:39.512Z,11.90
2018-04-24T04:51:43.172Z,12.20
2018-04-24T04:56:46.630Z,12.20
2018-04-24T05:01:50.250Z,12.60
2018-04-24T05:06:53.861Z,12.80
2018-04-24T05:11:57.489Z,12.80
2018-04-24T05:17:00.744Z,13.00
2018-04-24T05:22:04.545Z,13.30
2018-04-24T05:27:07.772Z,13.60
2018-04-24T05:32:11.012Z,13.80
2018-04-24T05:37:14.400Z,13.90
2018-04-24T05:42:17.974Z,14.10
2018-04-24T05:47:21.343Z,14.10
2018-04-24T05:52:24.619Z,14.00
2018-04-24T05:57:27.846Z,13.90
2018-04-24T06:02:31.074Z,13.90
2018-04-24T06:07:34.693Z,14.00
2018-04-24T06:12:38.317Z,14.10
2018-04-24T06:17:41.548Z,14.10
2018-04-24T06:22:44.775Z,14.10
2018-04-24T06:27:48.118Z,14.10
2018-04-24T06:32:51.905Z,14.40
2018-04-24T06:37:55.117Z,14.40
2018-04-24T06:42:58.327Z,14.40
2018-04-24T06:48:01.545Z,14.80
2018-04-24T06:53:04.776Z,15.00
2018-04-24T06:58:08.641Z,15.10
2018-04-24T07:03:11.998Z,15.10
2018-04-24T07:08:15.620Z,15.40
2018-04-24T07:13:19.005Z,15.40
2018-04-24T07:18:22.232Z,15.30
2018-04-24T07:23:26.113Z,15.60
2018-04-24T07:28:29.337Z,15.60
2018-04-24T07:33:32.574Z,15.40
2018-04-24T07:38:35.799Z,15.50
2018-04-24T07:43:39.017Z,15.90
2018-04-24T07:48:42.249Z,16.10
2018-04-24T07:53:45.480Z,15.90
2018-04-24T07:58:49.098Z,16.50
2018-04-24T08:03:52.701Z,16.40
2018-04-24T08:08:56.724Z,16.40
2018-04-24T08:14:00.403Z,16.90
2018-04-24T08:19:03.642Z,16.80
2018-04-24T08:24:06.884Z,16.80
2018-04-24T08:29:10.131Z,17.10
2018-04-24T08:34:13.362Z,17.40
2018-04-24T08:39:16.626Z,17.50
2018-04-24T08:44:19.978Z,17.50
2018-04-24T08:49:23.723Z,17.70
2018-04-24T08:54:26.995Z,17.70
2018-04-24T08:59:30.221Z,17.90
2018-04-24T09:04:33.924Z,17.90
2018-04-24T09:09:37.154Z,17.90
2018-04-24T09:14:40.410Z,18.00
2018-04-24T09:19:43.649Z,18.20
2018-04-24T09:24:47.270Z,18.30
2018-04-24T09:29:56.435Z,18.70
2018-04-24T09:34:59.684Z,18.70
2018-04-24T09:40:02.985Z,18.70
2018-04-24T09:45:06.199Z,18.80
2018-04-24T09:50:09.832Z,19.40
2018-04-24T09:55:13.458Z,19.80
2018-04-24T10:00:22.886Z,19.70
2018-04-24T10:05:26.116Z,19.70
2018-04-24T10:10:29.733Z,19.80
2018-04-24T10:15:33.389Z,19.70
2018-04-24T10:20:37.636Z,19.70
2018-04-24T10:25:40.870Z,20.10
2018-04-24T10:30:44.527Z,20.30
2018-04-24T10:35:47.738Z,20.30
2018-04-24T10:40:50.957Z,20.40
2018-04-24T10:45:54.179Z,21.00
2018-04-24T10:50:57.509Z,20.70
2018-04-24T10:56:01.165Z,20.90
2018-04-24T11:01:04.367Z,20.90
2018-04-24T11:06:07.580Z,21.50
2018-04-24T11:11:10.845Z,21.70
2018-04-24T11:16:14.081Z,22.20
2018-04-24T11:21:17.366Z,22.30
2018-04-24T11:26:21.280Z,22.70
2018-04-24T11:31:24.904Z,23.10
2018-04-24T11:36:28.628Z,24.40
2018-04-24T11:41:32.336Z,26.40
2018-04-24T11:46:36.046Z,26.80
2018-04-24T11:51:39.354Z,26.80
2018-04-24T11:56:42.973Z,28.10
2018-04-24T12:01:46.695Z,30.20
2018-04-24T12:06:50.302Z,29.70
2018-04-24T12:11:53.920Z,29.40
2018-04-24T12:16:57.598Z,29.60
2018-04-24T12:22:00.809Z,29.60
2018-04-24T12:27:04.042Z,30.40
2018-04-24T12:32:07.664Z,31.70
2018-04-24T12:37:11.370Z,31.10
2018-04-24T12:42:15.060Z,31.00
2018-04-24T12:47:18.308Z,31.00
2018-04-24T12:52:21.994Z,31.00
2018-04-24T12:57:25.209Z,31.00
2018-04-24T13:02:28.530Z,31.50
2018-04-24T13:07:32.151Z,32.20
2018-04-24T13:12:35.762Z,30.90
2018-04-24T13:17:39.465Z,30.50
2018-04-24T13:22:42.691Z,30.50
2018-04-24T13:27:46.392Z,32.30
2018-04-24T13:32:50.039Z,31.90
2018-04-24T13:37:53.282Z,31.90
2018-04-24T13:42:56.518Z,32.00
2018-04-24T13:47:59.829Z,29.80
2018-04-24T13:53:03.548Z,25.90
2018-04-24T13:58:06.760Z,25.90
2018-04-24T14:03:10.070Z,26.10
2018-04-24T14:08:13.701Z,25.50
2018-04-24T14:13:16.960Z,25.50
2018-04-24T14:18:20.178Z,25.50
2018-04-24T14:23:24.495Z,26.10
2018-04-24T14:28:27.738Z,26.40
2018-04-24T14:33:31.437Z,25.80
2018-04-24T14:38:35.075Z,25.60
2018-04-24T14:43:38.362Z,25.60
2018-04-24T14:48:42.076Z,24.60
2018-04-24T14:53:45.292Z,24.60
2018-04-24T14:58:48.918Z,24.70
2018-04-24T15:03:52.517Z,25.10
2018-04-24T15:08:56.163Z,25.10
2018-04-24T15:13:59.373Z,25.10
2018-04-24T15:19:02.592Z,25.10
2018-04-24T15:24:05.851Z,25.10
2018-04-24T15:29:09.466Z,25.80
2018-04-24T15:34:13.087Z,25.20
2018-04-24T15:39:16.739Z,25.00
2018-04-24T15:44:19.993Z,25.00
2018-04-24T15:49:23.743Z,26.00
2018-04-24T15:54:26.980Z,26.00
2018-04-24T15:59:30.229Z,27.60
2018-04-24T16:04:34.352Z,30.20
2018-04-24T16:09:37.653Z,30.20
2018-04-24T16:14:41.062Z,31.40
2018-04-24T16:19:44.676Z,29.40
2018-04-24T16:24:47.982Z,29.70
2018-04-24T16:29:51.837Z,31.60
2018-04-24T16:34:54.988Z,31.60
2018-04-24T16:39:58.210Z,31.10
2018-04-24T16:45:01.843Z,27.80
2018-04-24T16:50:05.092Z,27.80
2018-04-24T16:55:09.131Z,29.70
2018-04-24T17:00:12.344Z,29.90
2018-04-24T17:05:15.592Z,28.70
2018-04-24T17:10:18.842Z,25.90
2018-04-24T17:15:22.067Z,23.40
2018-04-24T17:20:25.312Z,22.40
2018-04-24T17:25:36.877Z,21.70
2018-04-24T17:30:42.051Z,20.90
2018-04-24T17:35:45.313Z,20.90
2018-04-24T17:40:49.009Z,20.30
2018-04-24T17:45:52.320Z,20.30
2018-04-24T17:50:55.621Z,20.00
2018-04-24T17:55:58.898Z,19.70
2018-04-24T18:01:02.447Z,19.40
2018-04-24T18:06:06.169Z,18.90
2018-04-24T18:11:09.839Z,18.80
2018-04-24T18:16:13.188Z,18.80
2018-04-24T18:21:18.134Z,18.10
2018-04-24T18:26:22.058Z,18.10
2018-04-24T18:31:26.791Z,17.80
2018-04-24T18:36:30.162Z,17.50
2018-04-24T18:41:33.523Z,17.30
2018-04-24T18:46:37.196Z,17.10
2018-04-24T18:51:40.542Z,17.10
2018-04-24T18:56:44.760Z,16.80
2018-04-24T19:01:48.695Z,16.80
2018-04-24T19:06:52.402Z,16.50
2018-04-24T19:11:56.222Z,16.30
2018-04-24T19:16:59.705Z,16.20
2018-04-24T19:22:03.172Z,15.80
2018-04-24T19:27:06.958Z,15.70
2018-04-24T19:32:16.518Z,15.60
2018-04-24T19:37:28.223Z,15.50
2018-04-24T19:42:31.833Z,15.40
2018-04-24T19:47:35.332Z,15.30
2018-04-24T19:52:39.068Z,15.40
2018-04-24T19:57:42.888Z,15.40
2018-04-24T20:02:46.923Z,15.30
2018-04-24T20:07:50.987Z,15.10
2018-04-24T20:12:54.453Z,15.20
2018-04-24T20:17:58.295Z,14.90
2018-04-24T20:23:01.690Z,14.90
2018-04-24T20:28:05.608Z,14.90
2018-04-24T20:33:09.456Z,14.80
2018-04-24T20:38:13.134Z,14.60
2018-04-24T20:43:21.013Z,14.60
2018-04-24T20:48:24.358Z,14.40
2018-04-24T20:53:28.804Z,14.50
2018-04-24T20:58:32.448Z,14.30
2018-04-24T21:03:36.041Z,14.30
2018-04-24T21:08:39.346Z,14.30
2018-04-24T21:13:43.354Z,14.30
2018-04-24T21:18:47.388Z,14.30
2018-04-24T21:23:51.376Z,14.10
2018-04-24T21:28:54.951Z,14.10
2018-04-24T21:33:58.455Z,14.10
2018-04-24T21:39:02.042Z,14.10
2018-04-24T21:44:06.005Z,13.80
2018-04-24T21:49:10.703Z,13.90
2018-04-24T21:54:14.026Z,13.70
2018-04-24T21:59:17.320Z,13.60
2018-04-24T22:04:21.114Z,13.60
2018-04-24T22:09:24.685Z,13.60
2018-04-24T22:14:28.083Z,13.50
2018-04-24T22:19:31.343Z,13.30
2018-04-24T22:24:34.681Z,13.20
2018-04-24T22:29:38.591Z,13.30
2018-04-24T22:34:41.871Z,13.30
2018-04-24T22:39:45.142Z,13.10
2018-04-24T22:44:49.800Z,13.10
2018-04-24T22:49:53.992Z,13.00
2018-04-24T22:54:57.796Z,12.70
2018-04-24T23:00:01.125Z,12.70
2018-04-24T23:05:06.232Z,12.50
2018-04-24T23:10:09.126Z,12.50
2018-04-24T23:15:25.238Z,12.50
2018-04-24T23:20:29.291Z,12.60
2018-04-24T23:25:32.573Z,12.60
2018-04-24T23:30:36.006Z,12.60
2018-04-24T23:35:39.259Z,12.60
2018-04-24T23:40:42.513Z,12.50
2018-04-24T23:45:45.957Z,12.40
2018-04-24T23:50:49.347Z,12.50
2018-04-24T23:55:52.989Z,12.40
